createdAt,value
2019-04-06T00:01:03.061Z,31.52
2019-04-06T00:03:29.865Z,30.45
2019-04-06T00:05:56.458Z,33.70
2019-04-06T00:08:23.122Z,32.75
2019-04-06T00:10:50.992Z,32.60
2019-04-06T00:13:17.707Z,32.55
2019-04-06T00:15:45.129Z,34.03
2019-04-06T00:18:11.726Z,33.83
2019-04-06T00:20:40.952Z,32.53
2019-04-06T00:23:07.642Z,33.50
2019-04-06T00:25:43.835Z,34.65
2019-04-06T00:28:04.191Z,36.00
2019-04-06T00:30:32.694Z,33.18
2019-04-06T00:33:10.234Z,34.55
2019-04-06T00:35:36.924Z,37.90
2019-04-06T00:38:03.539Z,34.13
2019-04-06T00:40:30.201Z,33.78
2019-04-06T00:42:56.996Z,33.75
2019-04-06T00:45:23.544Z,32.88
2019-04-06T00:47:50.791Z,32.25
2019-04-06T00:50:17.306Z,30.72
2019-04-06T00:52:43.763Z,35.13
2019-04-06T00:55:10.532Z,31.33
2019-04-06T00:57:36.983Z,33.33
2019-04-06T01:00:06.852Z,31.90
2019-04-06T01:02:33.693Z,33.38
2019-04-06T01:05:00.169Z,31.27
2019-04-06T01:07:26.747Z,31.05
2019-04-06T01:10:04.675Z,36.33
2019-04-06T01:12:31.454Z,30.57
2019-04-06T01:14:58.167Z,30.80
2019-04-06T01:17:24.919Z,30.45
2019-04-06T01:19:51.569Z,33.20
2019-04-06T01:22:17.981Z,31.23
2019-04-06T01:24:44.540Z,31.65
2019-04-06T01:27:13.155Z,31.97
2019-04-06T01:29:40.108Z,32.05
2019-04-06T01:32:08.218Z,30.60
2019-04-06T01:34:35.763Z,30.23
2019-04-06T01:37:02.454Z,30.10
2019-04-06T01:39:28.988Z,33.25
2019-04-06T01:41:55.523Z,30.27
2019-04-06T01:44:22.595Z,36.95
2019-04-06T01:46:49.157Z,33.75
2019-04-06T01:49:15.727Z,32.98
2019-04-06T01:51:42.327Z,33.05
2019-04-06T01:54:08.737Z,30.25
2019-04-06T01:56:35.422Z,33.70
2019-04-06T01:59:02.119Z,33.28
2019-04-06T02:01:36.408Z,29.95
2019-04-06T02:04:02.830Z,31.65
2019-04-06T02:06:30.584Z,32.17
2019-04-06T02:08:57.157Z,33.65
2019-04-06T02:11:23.690Z,34.58
2019-04-06T02:13:51.598Z,33.78
2019-04-06T02:16:18.099Z,34.60
2019-04-06T02:18:45.787Z,31.95
2019-04-06T02:21:12.358Z,36.03
2019-04-06T02:23:38.810Z,29.98
2019-04-06T02:26:05.213Z,32.58
2019-04-06T02:28:31.628Z,32.15
2019-04-06T02:31:09.239Z,33.42
2019-04-06T02:33:52.887Z,34.38
2019-04-06T02:36:33.183Z,33.90
2019-04-06T02:39:18.315Z,31.95
2019-04-06T02:41:50.010Z,33.38
2019-04-06T02:44:16.919Z,33.85
2019-04-06T02:46:44.538Z,34.33
2019-04-06T02:49:12.469Z,33.33
2019-04-06T02:51:38.999Z,31.48
2019-04-06T02:54:05.529Z,31.68
2019-04-06T02:56:44.852Z,34.67
2019-04-06T02:59:00.659Z,35.03
2019-04-06T03:01:27.750Z,32.42
2019-04-06T03:03:54.817Z,32.90
2019-04-06T03:06:21.494Z,30.95
2019-04-06T03:08:48.165Z,28.98
2019-04-06T03:11:14.885Z,29.70
2019-04-06T03:13:41.380Z,29.07
2019-04-06T03:16:07.894Z,35.50
2019-04-06T03:18:34.870Z,32.40
2019-04-06T03:21:01.753Z,29.65
2019-04-06T03:23:30.163Z,30.85
2019-04-06T03:25:56.702Z,31.15
2019-04-06T03:28:23.263Z,33.02
2019-04-06T03:30:50.219Z,29.35
2019-04-06T03:33:17.086Z,29.98
2019-04-06T03:35:49.116Z,32.95
2019-04-06T03:38:14.950Z,34.45
2019-04-06T03:40:43.713Z,33.38
2019-04-06T03:43:10.317Z,32.15
2019-04-06T03:45:37.213Z,35.85
2019-04-06T03:48:03.935Z,32.53
2019-04-06T03:50:30.628Z,35.25
2019-04-06T03:52:57.392Z,33.38
2019-04-06T03:55:23.798Z,31.80
2019-04-06T03:57:50.102Z,33.65
2019-04-06T04:00:16.995Z,32.55
2019-04-06T04:02:44.817Z,34.23
2019-04-06T04:05:12.949Z,31.48
2019-04-06T04:07:41.797Z,31.27
2019-04-06T04:10:10.878Z,35.40
2019-04-06T04:12:37.513Z,32.23
2019-04-06T04:15:06.461Z,30.35
2019-04-06T04:17:33.447Z,33.38
2019-04-06T04:20:00.373Z,33.65
2019-04-06T04:22:30.080Z,35.70
2019-04-06T04:24:56.549Z,31.40
2019-04-06T04:27:29.346Z,35.03
2019-04-06T04:29:51.850Z,31.35
2019-04-06T04:32:18.431Z,33.33
2019-04-06T04:34:45.107Z,32.65
2019-04-06T04:37:11.893Z,27.35
2019-04-06T04:39:38.937Z,32.58
2019-04-06T04:42:05.756Z,32.83
2019-04-06T04:44:32.359Z,33.23
2019-04-06T04:46:58.676Z,32.38
2019-04-06T04:49:25.181Z,35.13
2019-04-06T04:51:51.563Z,31.97
2019-04-06T04:54:18.287Z,31.80
2019-04-06T04:56:44.769Z,32.40
2019-04-06T04:59:11.337Z,32.40
2019-04-06T05:01:38.354Z,33.48
2019-04-06T05:04:04.924Z,31.65
2019-04-06T05:06:31.501Z,30.85
2019-04-06T05:08:59.836Z,31.68
2019-04-06T05:11:26.552Z,30.72
2019-04-06T05:14:30.321Z,31.87
2019-04-06T05:16:56.724Z,34.98
2019-04-06T05:19:23.481Z,37.17
2019-04-06T05:21:49.947Z,35.43
2019-04-06T05:24:16.439Z,36.17
2019-04-06T05:26:43.045Z,36.50
2019-04-06T05:29:09.693Z,35.03
2019-04-06T05:31:36.257Z,35.23
2019-04-06T05:34:03.112Z,36.05
2019-04-06T05:36:29.697Z,36.98
2019-04-06T05:38:57.499Z,36.13
2019-04-06T05:41:24.035Z,35.88
2019-04-06T05:43:50.749Z,44.77
2019-04-06T05:46:17.178Z,36.80
2019-04-06T05:48:43.674Z,34.27
2019-04-06T05:51:10.057Z,38.40
2019-04-06T05:53:36.727Z,37.85
2019-04-06T05:56:03.249Z,39.20
2019-04-06T05:58:29.868Z,37.30
2019-04-06T06:00:56.272Z,42.58
2019-04-06T06:03:22.942Z,38.35
2019-04-06T06:05:49.580Z,45.00
2019-04-06T06:08:16.108Z,36.55
2019-04-06T06:10:42.897Z,42.03
2019-04-06T06:13:09.387Z,38.55
2019-04-06T06:15:36.120Z,46.18
2019-04-06T06:18:03.151Z,47.65
2019-04-06T06:20:29.621Z,47.48
2019-04-06T06:22:56.154Z,44.00
2019-04-06T06:25:22.962Z,44.13
2019-04-06T06:27:49.675Z,47.75
2019-04-06T06:30:16.575Z,44.93
2019-04-06T06:32:43.072Z,45.30
2019-04-06T06:35:09.740Z,42.65
2019-04-06T06:37:36.342Z,42.75
2019-04-06T06:40:04.950Z,41.05
2019-04-06T06:42:31.503Z,42.40
2019-04-06T06:44:57.969Z,42.85
2019-04-06T06:47:24.649Z,42.03
2019-04-06T06:49:51.281Z,43.23
2019-04-06T06:52:17.830Z,43.33
2019-04-06T06:54:44.394Z,40.08
2019-04-06T06:57:10.980Z,42.73
2019-04-06T06:59:37.491Z,41.55
2019-04-06T07:02:04.003Z,43.55
2019-04-06T07:04:30.511Z,41.48
2019-04-06T07:06:57.684Z,37.48
2019-04-06T07:09:24.437Z,36.58
2019-04-06T07:11:53.219Z,38.08
2019-04-06T07:14:22.101Z,38.63
2019-04-06T07:16:48.788Z,44.50
2019-04-06T07:19:15.308Z,39.42
2019-04-06T07:21:41.873Z,35.03
2019-04-06T07:24:08.444Z,37.83
2019-04-06T07:26:34.965Z,33.28
2019-04-06T07:29:01.778Z,33.95
2019-04-06T07:31:28.494Z,30.08
2019-04-06T07:33:55.010Z,31.62
2019-04-06T07:36:21.390Z,31.70
2019-04-06T07:38:47.972Z,28.50
2019-04-06T07:41:14.456Z,30.72
2019-04-06T07:43:41.129Z,31.70
2019-04-06T07:46:07.826Z,30.23
2019-04-06T07:48:34.515Z,33.50
2019-04-06T07:51:01.067Z,30.88
2019-04-06T07:53:30.599Z,29.32
2019-04-06T07:55:57.173Z,28.50
2019-04-06T07:58:29.374Z,28.05
2019-04-06T08:00:59.898Z,30.90
2019-04-06T08:03:26.601Z,34.23
2019-04-06T08:05:55.581Z,36.73
2019-04-06T08:08:22.362Z,27.95
2019-04-06T08:10:49.208Z,30.32
2019-04-06T08:13:15.684Z,26.95
2019-04-06T08:15:42.169Z,29.48
2019-04-06T08:18:08.666Z,28.83
2019-04-06T08:20:35.191Z,26.17
2019-04-06T08:23:04.708Z,26.02
2019-04-06T08:25:30.992Z,27.15
2019-04-06T08:27:57.566Z,26.02
2019-04-06T08:30:24.196Z,26.62
2019-04-06T08:32:50.593Z,24.63
2019-04-06T08:35:25.108Z,28.47
2019-04-06T08:37:46.117Z,29.00
2019-04-06T08:40:13.977Z,26.80
2019-04-06T08:42:50.128Z,31.02
2019-04-06T08:45:19.464Z,28.27
2019-04-06T08:47:48.360Z,50.52
2019-04-06T08:50:19.399Z,52.15
2019-04-06T08:52:48.883Z,34.85
2019-04-06T08:55:18.792Z,29.27
2019-04-06T08:57:52.590Z,22.85
2019-04-06T09:00:23.708Z,25.92
2019-04-06T09:02:52.395Z,20.20
2019-04-06T09:05:28.232Z,24.55
2019-04-06T09:07:56.772Z,25.57
2019-04-06T09:10:24.955Z,16.87
2019-04-06T09:12:52.413Z,16.77
2019-04-06T09:15:20.942Z,16.12
2019-04-06T09:17:48.745Z,16.48
2019-04-06T09:20:15.318Z,17.77
2019-04-06T09:22:42.846Z,19.90
2019-04-06T09:25:09.521Z,17.90
2019-04-06T09:27:36.893Z,17.98
2019-04-06T09:30:05.091Z,18.77
2019-04-06T09:32:37.875Z,17.50
2019-04-06T09:35:00.081Z,20.17
2019-04-06T09:37:28.691Z,19.73
2019-04-06T09:39:55.918Z,16.12
2019-04-06T09:42:22.762Z,18.82
2019-04-06T09:44:52.531Z,16.07
2019-04-06T09:47:22.069Z,14.98
2019-04-06T09:49:50.781Z,16.42
2019-04-06T09:52:23.257Z,16.90
2019-04-06T09:54:57.611Z,15.28
2019-04-06T09:57:30.913Z,16.02
2019-04-06T10:00:05.106Z,18.62
2019-04-06T10:02:38.267Z,14.38
2019-04-06T10:05:11.078Z,17.90
2019-04-06T10:07:41.776Z,15.90
2019-04-06T10:10:11.763Z,16.48
2019-04-06T10:12:47.787Z,16.80
2019-04-06T10:15:20.699Z,16.75
2019-04-06T10:17:52.595Z,15.68
2019-04-06T10:20:30.147Z,15.32
2019-04-06T10:23:04.543Z,15.65
2019-04-06T10:25:33.227Z,17.32
2019-04-06T10:28:01.992Z,16.17
2019-04-06T10:30:48.484Z,17.27
2019-04-06T10:33:16.950Z,20.23
2019-04-06T10:35:57.574Z,18.80
2019-04-06T10:38:42.404Z,17.10
2019-04-06T10:41:20.671Z,21.55
2019-04-06T10:44:03.722Z,23.55
2019-04-06T10:46:32.696Z,21.73
2019-04-06T10:49:18.638Z,19.02
2019-04-06T10:51:50.160Z,24.20
2019-04-06T10:54:37.202Z,20.70
2019-04-06T10:57:14.941Z,32.17
2019-04-06T11:00:05.784Z,31.35
2019-04-06T11:02:52.421Z,25.12
2019-04-06T11:05:24.993Z,24.85
2019-04-06T11:08:11.317Z,22.17
2019-04-06T11:10:40.577Z,22.87
2019-04-06T11:13:12.035Z,22.73
2019-04-06T11:15:49.721Z,19.77
2019-04-06T11:18:30.645Z,20.90
2019-04-06T11:21:07.994Z,20.30
2019-04-06T11:23:45.522Z,25.35
2019-04-06T11:26:22.037Z,19.35
2019-04-06T11:29:07.361Z,24.07
2019-04-06T11:31:36.625Z,21.05
2019-04-06T11:34:05.539Z,21.17
2019-04-06T11:36:40.123Z,19.65
2019-04-06T11:39:31.377Z,20.50
2019-04-06T11:42:19.837Z,18.50
2019-04-06T11:44:50.133Z,24.05
2019-04-06T11:47:29.358Z,36.48
2019-04-06T11:50:01.156Z,34.90
2019-04-06T11:52:34.145Z,28.73
2019-04-06T11:55:05.174Z,30.95
2019-04-06T11:57:36.123Z,24.37
2019-04-06T12:00:26.957Z,23.45
2019-04-06T12:02:57.380Z,19.98
2019-04-06T12:05:42.381Z,17.40
2019-04-06T12:08:21.762Z,22.05
2019-04-06T12:10:55.712Z,21.70
2019-04-06T12:13:47.568Z,23.70
2019-04-06T12:16:22.699Z,21.10
2019-04-06T12:19:03.045Z,17.57
2019-04-06T12:21:52.211Z,17.87
2019-04-06T12:24:28.371Z,21.00
2019-04-06T12:27:09.011Z,24.45
2019-04-06T12:29:38.662Z,25.08
2019-04-06T12:32:07.259Z,25.62
2019-04-06T12:34:37.715Z,18.35
2019-04-06T12:37:18.833Z,18.27
2019-04-06T12:39:55.504Z,19.65
2019-04-06T12:42:39.385Z,19.07
2019-04-06T12:45:26.705Z,19.75
2019-04-06T12:48:11.853Z,18.20
2019-04-06T12:50:56.693Z,17.98
2019-04-06T12:53:28.241Z,18.02
2019-04-06T12:55:59.520Z,21.85
2019-04-06T12:58:37.446Z,19.95
2019-04-06T13:01:21.225Z,18.90
2019-04-06T13:03:49.706Z,18.92
2019-04-06T13:06:26.822Z,16.50
2019-04-06T13:09:11.812Z,16.40
2019-04-06T13:11:41.093Z,14.87
2019-04-06T13:14:09.754Z,14.60
2019-04-06T13:16:38.215Z,17.30
2019-04-06T13:19:06.631Z,13.62
2019-04-06T13:21:38.372Z,16.55
2019-04-06T13:24:06.959Z,16.97
2019-04-06T13:26:52.008Z,16.48
2019-04-06T13:29:20.309Z,18.60
2019-04-06T13:31:49.286Z,19.17
2019-04-06T13:34:23.508Z,16.15
2019-04-06T13:36:57.729Z,17.42
2019-04-06T13:45:34.780Z,32.25
2019-04-06T13:48:21.392Z,32.20
2019-04-06T13:50:52.640Z,29.80
2019-04-06T13:53:21.354Z,23.35
2019-04-06T13:56:06.145Z,20.37
2019-04-06T13:58:34.765Z,17.45
2019-04-06T14:01:21.147Z,16.23
2019-04-06T14:03:49.565Z,17.80
2019-04-06T14:06:24.149Z,20.55
2019-04-06T14:08:52.528Z,21.60
2019-04-06T14:11:23.874Z,19.87
2019-04-06T14:14:09.467Z,18.50
2019-04-06T14:16:49.863Z,17.55
2019-04-06T14:19:18.137Z,18.50
2019-04-06T14:21:49.758Z,20.55
2019-04-06T14:24:24.598Z,17.32
2019-04-06T14:27:15.504Z,16.82
2019-04-06T14:29:56.850Z,18.82
2019-04-06T14:32:28.844Z,17.10
2019-04-06T14:34:58.349Z,15.53
2019-04-06T14:37:38.124Z,16.95
2019-04-06T14:40:26.089Z,16.12
2019-04-06T14:43:11.258Z,16.23
2019-04-06T14:45:40.086Z,15.00
2019-04-06T14:48:29.492Z,16.10
2019-04-06T14:51:00.951Z,17.35
2019-04-06T14:53:29.758Z,16.27
2019-04-06T14:56:24.431Z,16.70
2019-04-06T14:58:57.181Z,17.37
2019-04-06T15:01:45.270Z,16.57
2019-04-06T15:04:11.221Z,15.43
2019-04-06T15:07:08.863Z,17.25
2019-04-06T15:09:46.365Z,19.48
2019-04-06T15:12:14.878Z,15.15
2019-04-06T15:15:00.557Z,17.37
2019-04-06T15:17:39.116Z,20.97
2019-04-06T15:20:26.094Z,16.67
2019-04-06T15:23:11.519Z,16.60
2019-04-06T15:28:17.164Z,14.65
2019-04-06T15:30:51.131Z,15.43
2019-04-06T15:33:20.046Z,17.23
2019-04-06T15:35:51.685Z,14.78
2019-04-06T15:38:20.291Z,17.57
2019-04-06T15:40:54.759Z,20.00
2019-04-06T15:43:23.303Z,17.67
2019-04-06T15:46:03.946Z,17.30
2019-04-06T15:48:48.431Z,17.50
2019-04-06T15:51:30.492Z,26.40
2019-04-06T15:54:02.326Z,31.42
2019-04-06T15:56:37.664Z,36.73
2019-04-06T15:59:20.129Z,19.90
2019-04-06T16:02:00.222Z,19.27
2019-04-06T16:04:41.337Z,26.30
2019-04-06T16:07:16.150Z,19.05
2019-04-06T16:09:47.610Z,19.45
2019-04-06T16:12:34.057Z,19.87
2019-04-06T16:15:20.573Z,22.25
2019-04-06T16:18:02.198Z,20.27
2019-04-06T16:20:30.161Z,20.57
2019-04-06T16:22:59.137Z,18.98
2019-04-06T16:25:36.242Z,19.90
2019-04-06T16:28:04.857Z,17.60
2019-04-06T16:30:51.437Z,18.23
2019-04-06T16:33:25.728Z,20.68
2019-04-06T16:35:55.938Z,18.57
2019-04-06T16:38:41.318Z,20.72
2019-04-06T16:43:59.628Z,18.45
2019-04-06T16:46:31.492Z,20.43
2019-04-06T16:49:05.896Z,25.40
2019-04-06T16:51:34.256Z,22.62
2019-04-06T16:54:08.731Z,22.58
2019-04-06T16:56:40.381Z,21.85
2019-04-06T16:59:25.664Z,23.87
2019-04-06T17:02:02.170Z,27.35
2019-04-06T17:04:30.579Z,23.83
2019-04-06T17:07:01.986Z,23.55
2019-04-06T17:09:36.177Z,23.12
2019-04-06T17:12:05.046Z,22.22
2019-04-06T17:14:49.237Z,21.80
2019-04-06T17:17:17.612Z,22.58
2019-04-06T17:19:58.493Z,27.58
2019-04-06T17:25:46.688Z,22.58
2019-04-06T17:28:32.137Z,21.97
2019-04-06T17:31:07.041Z,18.92
2019-04-06T17:33:51.920Z,20.68
2019-04-06T17:36:24.395Z,18.82
2019-04-06T17:39:00.012Z,18.75
2019-04-06T17:41:31.836Z,21.73
2019-04-06T17:44:07.143Z,22.17
2019-04-06T17:46:50.514Z,21.73
2019-04-06T17:49:24.859Z,20.02
2019-04-06T17:52:02.216Z,21.15
2019-04-06T17:54:36.712Z,20.20
2019-04-06T17:57:05.598Z,19.32
2019-04-06T17:59:34.052Z,23.10
2019-04-06T18:02:02.675Z,19.60
2019-04-06T18:04:39.223Z,19.75
2019-04-06T18:07:17.251Z,19.23
2019-04-06T18:09:48.394Z,20.35
2019-04-06T18:12:33.551Z,20.52
2019-04-06T18:14:59.926Z,31.95
2019-04-06T18:17:26.619Z,31.93
2019-04-06T18:19:53.187Z,25.12
2019-04-06T18:22:19.921Z,25.15
2019-04-06T18:24:46.750Z,26.75
2019-04-06T18:27:13.379Z,25.55
2019-04-06T18:29:41.115Z,25.48
2019-04-06T18:32:09.646Z,26.45
2019-04-06T18:34:36.570Z,28.10
2019-04-06T18:37:05.333Z,27.67
2019-04-06T18:39:31.881Z,30.15
2019-04-06T18:41:58.717Z,23.67
2019-04-06T18:44:25.647Z,23.77
2019-04-06T18:46:52.896Z,22.80
2019-04-06T18:49:19.554Z,26.33
2019-04-06T18:51:46.097Z,31.68
2019-04-06T18:54:12.939Z,23.50
2019-04-06T18:56:40.076Z,25.17
2019-04-06T18:59:07.883Z,23.60
2019-04-06T19:01:34.924Z,22.70
2019-04-06T19:04:02.139Z,41.37
2019-04-06T19:06:29.419Z,31.50
2019-04-06T19:08:56.150Z,33.08
2019-04-06T19:11:24.239Z,26.75
2019-04-06T19:13:51.089Z,21.82
2019-04-06T19:16:18.009Z,27.13
2019-04-06T19:18:45.527Z,25.80
2019-04-06T19:21:12.778Z,22.40
2019-04-06T19:23:40.104Z,19.52
2019-04-06T19:26:07.411Z,21.80
2019-04-06T19:28:34.247Z,18.25
2019-04-06T19:31:00.956Z,19.52
2019-04-06T19:33:28.539Z,29.50
2019-04-06T19:35:55.195Z,21.05
2019-04-06T19:38:21.697Z,18.37
2019-04-06T19:40:48.595Z,17.23
2019-04-06T19:43:17.331Z,17.42
2019-04-06T19:45:44.422Z,17.37
2019-04-06T19:48:11.017Z,18.17
2019-04-06T19:50:38.975Z,16.93
2019-04-06T19:53:05.722Z,22.17
2019-04-06T19:55:32.461Z,18.02
2019-04-06T19:58:10.396Z,17.98
2019-04-06T20:00:37.010Z,16.97
2019-04-06T20:03:04.291Z,18.05
2019-04-06T20:05:31.128Z,18.50
2019-04-06T20:07:57.738Z,18.07
2019-04-06T20:10:24.301Z,18.82
2019-04-06T20:12:51.929Z,19.10
2019-04-06T20:15:18.680Z,18.87
2019-04-06T20:17:45.271Z,20.60
2019-04-06T20:20:12.079Z,17.92
2019-04-06T20:22:38.915Z,20.75
2019-04-06T20:25:06.321Z,21.80
2019-04-06T20:27:32.908Z,38.23
2019-04-06T20:29:59.952Z,57.60
2019-04-06T20:32:26.556Z,17.48
2019-04-06T20:34:52.973Z,19.12
2019-04-06T20:37:19.485Z,24.12
2019-04-06T20:39:45.929Z,22.93
2019-04-06T20:42:12.327Z,21.40
2019-04-06T20:44:39.263Z,18.80
2019-04-06T20:47:06.178Z,17.95
2019-04-06T20:49:32.608Z,20.48
2019-04-06T20:51:59.621Z,19.35
2019-04-06T20:54:26.316Z,19.87
2019-04-06T20:56:57.081Z,18.57
2019-04-06T20:59:21.070Z,18.55
2019-04-06T21:01:47.619Z,20.15
2019-04-06T21:04:14.159Z,18.57
2019-04-06T21:06:40.737Z,18.15
2019-04-06T21:09:09.182Z,17.95
2019-04-06T21:11:35.784Z,17.75
2019-04-06T21:14:02.365Z,18.60
2019-04-06T21:16:29.036Z,20.60
2019-04-06T21:18:55.768Z,27.58
2019-04-06T21:21:22.197Z,17.67
2019-04-06T21:23:49.366Z,16.85
2019-04-06T21:26:16.113Z,15.75
2019-04-06T21:28:43.064Z,16.73
2019-04-06T21:31:09.925Z,17.17
2019-04-06T21:33:47.262Z,17.00
2019-04-06T21:36:14.136Z,18.00
2019-04-06T21:38:41.124Z,19.52
2019-04-06T21:41:07.995Z,19.35
2019-04-06T21:43:35.440Z,17.37
2019-04-06T21:46:02.436Z,17.55
2019-04-06T21:48:28.919Z,21.12
2019-04-06T21:50:56.023Z,15.85
2019-04-06T21:53:23.153Z,15.95
2019-04-06T21:56:00.940Z,19.57
2019-04-06T21:58:19.858Z,14.75
2019-04-06T22:00:48.186Z,18.80
2019-04-06T22:03:16.714Z,15.10
2019-04-06T22:05:43.460Z,18.67
2019-04-06T22:08:09.977Z,17.85
2019-04-06T22:10:36.821Z,17.02
2019-04-06T22:13:03.889Z,21.37
2019-04-06T22:15:31.113Z,16.67
2019-04-06T22:17:57.945Z,16.80
2019-04-06T22:20:28.151Z,17.07
2019-04-06T22:22:54.776Z,19.35
2019-04-06T22:25:22.530Z,16.57
2019-04-06T22:27:49.296Z,16.80
2019-04-06T22:30:16.065Z,15.60
2019-04-06T22:32:43.054Z,17.57
2019-04-06T22:35:09.969Z,17.73
2019-04-06T22:37:37.173Z,17.87
2019-04-06T22:40:05.069Z,18.23
2019-04-06T22:42:31.737Z,18.60
2019-04-06T22:44:58.754Z,18.87
2019-04-06T22:47:25.529Z,21.30
2019-04-06T22:49:52.132Z,19.02
2019-04-06T22:52:18.656Z,19.52
2019-04-06T22:54:45.803Z,18.30
2019-04-06T22:57:12.640Z,18.92
2019-04-06T22:59:39.334Z,19.65
2019-04-06T23:02:06.445Z,20.32
2019-04-06T23:04:48.583Z,16.57
2019-04-06T23:07:14.475Z,17.62
2019-04-06T23:09:41.605Z,19.10
2019-04-06T23:12:08.636Z,19.60
2019-04-06T23:14:35.142Z,18.40
2019-04-06T23:17:02.206Z,16.87
2019-04-06T23:19:30.924Z,19.37
2019-04-06T23:21:58.225Z,18.45
2019-04-06T23:24:25.124Z,20.55
2019-04-06T23:26:51.588Z,18.12
2019-04-06T23:29:19.367Z,18.70
2019-04-06T23:31:46.204Z,18.40
2019-04-06T23:34:13.393Z,18.25
2019-04-06T23:36:40.011Z,20.50
2019-04-06T23:39:06.855Z,18.25
2019-04-06T23:41:33.570Z,21.52
2019-04-06T23:44:03.126Z,18.15
2019-04-06T23:46:30.173Z,19.37
2019-04-06T23:48:56.878Z,19.23
2019-04-06T23:51:23.981Z,18.27
2019-04-06T23:53:50.835Z,18.90
2019-04-06T23:56:18.693Z,21.45
2019-04-06T23:58:45.407Z,18.35
